Nearby METAR Reports

 

KCFV - Coffeyville, Kansas, USA
Distance from station: ENE 93mi, 150km
Updated: Wed, 08-17-2022 12:52am CDT
NOT Current
Light rain, Overcast
Light rain, Overcast
 Wind from NE
Wind: NE 8 mph , 13 km/h
Temperature: 72°F , 22°C
Dew Point: 70°F , 21°C
Humidity: 94%
Barometer: 1014.9 hPa
Summary: Light rain
Clouds: Overcast
Visibility: 9 miles , 14 km
Cloud details: Mostly cloudy 800 ft
Overcast 10000 ft
2022/08/17 05:52 KCFV 170552Z AUTO 04007KT 9SM -RA BKN008 OVC100 22/21 A2997 RMK AO2 RAB46 SLP141 P0001 60029 T02170206 10311 20217 403670217 50010
KIDP - Independence, Kansas, USA
Distance from station: NE 86mi, 138km
Updated: Wed, 08-17-2022 1:55am CDT
Mist, Overcast
Mist, Overcast
 Wind from calm
Wind: Calm
Temperature: 70°F , 21°C
Dew Point: 68°F , 20°C
Humidity: 94%
Barometer: 1015.9 hPa
Summary: Mist
Clouds: Overcast
Visibility: 4 miles , 6 km
Cloud details: Overcast 900 ft
2022/08/17 06:55 KIDP 170655Z AUTO 00000KT 4SM BR OVC009 21/20 A3000 RMK AO2 LTG DSNT E AND SE T02110201
KIAB - Mcconnell Afb, Kansas, USA
Distance from station: N 84mi, 135km
Updated: Wed, 08-17-2022 1:55am CDT
Overcast
Overcast
 Wind from NE
Wind: NE 9 mph , 15 km/h
Temperature: 68°F , 20°C
Dew Point: 64°F , 18°C
Humidity: 88%
Barometer: 1016.9 hPa
Clouds: Overcast
Visibility: 10 miles , 16 km
Cloud details: Overcast 900 ft
2022/08/17 06:55 KIAB 170655Z AUTO 05008KT 10SM OVC009 20/18 A3003 RMK AO2 SLPNO T02040183 $
 
KICT - Wichita, Kansas, USA
Distance from station: NNW 88mi, 142km
Updated: Wed, 08-17-2022 12:53am CDT
NOT Current
Overcast
Overcast
 Wind from NE
Wind: NE 10 mph , 17 km/h
Temperature: 70°F , 21°C
Dew Point: 64°F , 18°C
Humidity: 83%
Barometer: 1017.6 hPa
Clouds: Overcast
Visibility: 10 miles , 16 km
Cloud details: Overcast 1000 ft
2022/08/17 05:53 KICT 170553Z 05009KT 10SM OVC010 21/18 A3005 RMK AO2 SLP161 T02060183 10244 20206 403390206 51008
KAAO - Wichita/Jabara, Kansas, USA
Distance from station: N 93mi, 149km
Updated: Tue, 08-16-2022 11:54pm CDT
NOT Current
Overcast
Overcast
 Wind from NE
Wind: NE 10 mph , 17 km/h
Temperature: 68°F , 20°C
Dew Point: 64°F , 18°C
Humidity: 88%
Barometer: 1017.6 hPa
Clouds: Overcast
Visibility: 10 miles , 16 km
Cloud details: Overcast 700 ft
2022/08/17 04:54 KAAO 170454Z AUTO 04009KT 10SM OVC007 20/18 A3005 RMK AO2 SLP163 T02000183
KWLD - Winfield/Arkansa, Kansas, USA
Distance from station: N 52mi, 84km
Updated: Wed, 08-17-2022 12:19am CDT
NOT Current
Overcast
Overcast
 Wind from NNE
Wind: NNE 12 mph , 19 km/h
Temperature: 72°F , 22°C
Dew Point: 66°F , 19°C
Humidity: 83%
Barometer: 1016.9 hPa
Clouds: Overcast
Visibility: 10 miles , 16 km
Cloud details: Overcast 1000 ft
2022/08/17 05:19 KWLD 170519Z AUTO 03010KT 10SM OVC010 22/19 A3003 RMK AO2 T02170189
 
KAVK - Alva, Oklahoma, USA
Distance from station: WNW 94mi, 152km
Updated: Wed, 08-17-2022 1:25am CDT
Overcast
Overcast
 Wind from NNE
Wind: NNE 12 mph , 19 km/h
Temperature: 73°F , 23°C
Dew Point: 66°F , 19°C
Humidity: 78%
Barometer: 1018.3 hPa
Clouds: Overcast
Visibility: 10 miles , 16 km
Cloud details: Overcast 1600 ft
2022/08/17 06:25 KAVK 170625Z AUTO 02010KT 10SM OVC016 23/19 A3007 RMK AO2
KBVO - Bartlesville, Oklahoma, USA
Distance from station: ENE 61mi, 98km
Updated: Wed, 08-17-2022 12:53am CDT
NOT Current
Overcast
Overcast
 Wind from NNE
Wind: NNE 14 mph , 22 km/h
Temperature: 72°F , 22°C
Dew Point: 70°F , 21°C
Humidity: 94%
Barometer: 1015.6 hPa
Clouds: Overcast
Visibility: 10 miles , 16 km
Cloud details: Overcast 800 ft
2022/08/17 05:53 KBVO 170553Z AUTO 02012KT 10SM OVC008 22/21 A2999 RMK AO2 SLP142 60003 T02220211 10244 20222 404000222 51012
KBKN - Blackwell, Oklahoma, USA
Distance from station: NW 29mi, 47km
Updated: Wed, 08-17-2022 1:55am CDT
Mostly cloudy
Mostly cloudy
 Wind from N
Wind: N 13 mph , 20 km/h
Temperature: 73°F , 23°C
Dew Point: 66°F , 19°C
Humidity: 78%
Barometer: 1016.3 hPa
Clouds: Mostly cloudy
Visibility: 10 miles , 16 km
Cloud details: Few Clouds 1300 ft
Partly cloudy 3200 ft
Mostly cloudy 4200 ft
2022/08/17 06:55 KBKN 170655Z AUTO 36011KT 10SM FEW013 SCT032 BKN042 23/19 A3001 RMK AO2
 
KGCM - Claremore, Oklahoma, USA
Distance from station: E 86mi, 138km
Updated: Wed, 08-17-2022 1:55am CDT
Overcast
Overcast
 Wind from NE
Wind: NE 7 mph , 11 km/h
Temperature: 70°F , 21°C
Dew Point: 70°F , 21°C
Humidity: 100%
Barometer: 1014.6 hPa
Clouds: Overcast
Visibility: 10 miles , 16 km
Cloud details: Partly cloudy 1300 ft
Mostly cloudy 1800 ft
Overcast 8000 ft
2022/08/17 06:55 KGCM 170655Z AUTO 04006KT 10SM SCT013 BKN018 OVC080 21/21 A2996 RMK AO2 P0022
KCQB - Chandler, Oklahoma, USA
Distance from station: SSE 50mi, 80km
Updated: Wed, 08-17-2022 1:55am CDT
Mostly cloudy
Mostly cloudy
 Wind from N
Wind: N 6 mph , 9 km/h
Temperature: 73°F , 23°C
Dew Point: 70°F , 21°C
Humidity: 89%
Barometer: 1014.6 hPa
Clouds: Mostly cloudy
Visibility: 10 miles , 16 km
Cloud details: Partly cloudy 1600 ft
Mostly cloudy 9500 ft
2022/08/17 06:55 KCQB 170655Z AUTO 36005KT 10SM SCT016 BKN095 23/21 A2996 RMK AO2 T02290211
KCUH - Cushing, Oklahoma, USA
Distance from station: SSE 35mi, 57km
Updated: Wed, 08-17-2022 12:35am CDT
NOT Current
Light rain, Partly cloudy
Light rain, Partly cloudy
 Wind from NE
Wind: NE 9 mph , 15 km/h, Gust: 17 mph , 28 km/h
Temperature: 75°F , 24°C
Dew Point: 70°F , 21°C
Humidity: 83%
Barometer: 1013.9 hPa
Summary: Light rain
Clouds: Partly cloudy
Visibility: 10 miles , 16 km
Cloud details: Partly cloudy 1800 ft
Partly cloudy 12000 ft
2022/08/17 05:35 KCUH 170535Z AUTO 04008G15KT 10SM -RA SCT018 SCT120 24/21 A2994 RMK AO2 LTG DSNT E T02370206
 
KRQO - El Reno Muni, Oklahoma, USA
Distance from station: SW 85mi, 137km
Updated: Wed, 08-17-2022 12:50am CDT
NOT Current
Light drizzle, Mostly cloudy
Light drizzle, Mostly cloudy
 Wind from N
Wind: N 21 mph , 33 km/h, Gust: 26 mph , 43 km/h
Temperature: 75°F , 24°C
Dew Point: 68°F , 20°C
Humidity: 78%
Barometer: 1015.9 hPa
Summary: Light Drizzle
Clouds: Mostly cloudy
Visibility: 4 miles , 6 km
Cloud details: Mostly cloudy 11000 ft
2022/08/17 05:50 KRQO 170550Z AUTO 01018G23KT 4SM -DZ BKN110 24/20 A3000 RMK AO2 T02410202 10375 20238
KEND - Enid/Vance Afb, Oklahoma, USA
Distance from station: W 50mi, 81km
Updated: Wed, 08-17-2022 1:55am CDT
Overcast
Overcast
 Wind from NNE
Wind: NNE 16 mph , 26 km/h
Temperature: 72°F , 22°C
Dew Point: 66°F , 19°C
Humidity: 83%
Barometer: 1016.3 hPa
Clouds: Overcast
Visibility: 10 miles , 16 km
Cloud details: Overcast 1400 ft
2022/08/17 06:55 KEND 170655Z AUTO 02014KT 10SM OVC014 22/19 A3001 RMK AO2 CIG 013 RWY17C SLPNO T02240193 $
KWDG - Enid/Woodring, Oklahoma, USA
Distance from station: W 42mi, 67km
Updated: Wed, 08-17-2022 2:15am CDT
Overcast
Overcast
 Wind from N
Wind: N 14 mph , 22 km/h
Temperature: 72°F , 22°C
Dew Point: 66°F , 19°C
Humidity: 83%
Barometer: 1016.3 hPa
Clouds: Overcast
Visibility: 10 miles , 16 km
Cloud details: Mostly cloudy 1600 ft
Overcast 9500 ft
2022/08/17 07:15 KWDG 170715Z AUTO 01012KT 10SM BKN016 OVC095 22/19 A3001 RMK AO2
 
KGOK - Guthrie, Oklahoma, USA
Distance from station: SSW 44mi, 71km
Updated: Tue, 08-16-2022 11:53pm CDT
NOT Current
Clear
Clear
 Wind from N
Wind: N 9 mph , 15 km/h, Gust: 18 mph , 30 km/h
Temperature: 77°F , 25°C
Dew Point: 68°F , 20°C
Humidity: 74%
Barometer: 1014.6 hPa
Clouds: Clear
Visibility: 10 miles , 16 km
2022/08/17 04:53 KGOK 170453Z AUTO 01008G16KT 10SM CLR 25/20 A2996 RMK AO2 SLP133 T02500200
KOUN - Norman/Westheime, Oklahoma, USA
Distance from station: SSW 84mi, 136km
Updated: Wed, 08-17-2022 12:55am CDT
NOT Current
Clear
Clear
 Wind from N
Wind: N 12 mph , 19 km/h, Gust: 21 mph , 33 km/h
Temperature: 81°F , 27°C
Heat Index: 84°F , 29°C
Dew Point: 68°F , 20°C
Humidity: 66%
Barometer: 1014.2 hPa
Clouds: Clear
Visibility: 10 miles , 16 km
2022/08/17 05:55 KOUN 170555Z AUTO 36010G18KT 10SM CLR 27/20 A2995 RMK AO2 T02660204 10374 20266
KOKC - Oklahoma City, Oklahoma, USA
Distance from station: SSW 78mi, 126km
Updated: Tue, 08-16-2022 11:52pm CDT
NOT Current
Mostly cloudy
Mostly cloudy
 Wind from N
Wind: N 20 mph , 31 km/h
Temperature: 81°F , 27°C
Heat Index: 85°F , 29°C
Dew Point: 70°F , 21°C
Humidity: 70%
Barometer: 1014.2 hPa
Clouds: Mostly cloudy
Visibility: 10 miles , 16 km
Cloud details: Few Clouds 6000 ft
Partly cloudy 11000 ft
Mostly cloudy 25000 ft
2022/08/17 04:52 KOKC 170452Z 36017KT 10SM FEW060 SCT110 BKN250 27/21 A2995 RMK AO2 RAB08E30 SLP121 P0000 T02670211
 
KPWA - Okla City/Wiley, Oklahoma, USA
Distance from station: SSW 70mi, 113km
Updated: Tue, 08-16-2022 11:53pm CDT
NOT Current
Clear
Clear
 Wind from N
Wind: N 12 mph , 19 km/h
Temperature: 81°F , 27°C
Heat Index: 84°F , 29°C
Dew Point: 68°F , 20°C
Humidity: 66%
Barometer: 1014.6 hPa
Clouds: Clear
Visibility: 10 miles , 16 km
2022/08/17 04:53 KPWA 170453Z AUTO 01010KT 10SM CLR 27/20 A2996 RMK AO2 WSHFT 0401 SLP125 T02670200
KRCE - Okla City/Page, Oklahoma, USA
Distance from station: SW 78mi, 126km
Updated: Wed, 08-17-2022 1:55am CDT
Clear
Clear
 Wind from NNE
Wind: NNE 10 mph , 17 km/h
Temperature: 73°F , 23°C
Dew Point: 68°F , 20°C
Humidity: 83%
Barometer: 1015.2 hPa
Clouds: Clear
Visibility: 10 miles , 16 km
2022/08/17 06:55 KRCE 170655Z AUTO 02009KT 10SM CLR 23/20 A2998 RMK AO2
KOKM - Okmulgee, Oklahoma, USA
Distance from station: SE 79mi, 127km
Updated: Wed, 08-17-2022 1:55am CDT

 Wind from NNE
Wind: NNE 7 mph , 11 km/h
Temperature: 77°F , 25°C
Dew Point: 72°F , 22°C
Humidity: 83%
Barometer: 1012.9 hPa
2022/08/17 06:55 KOKM 170655Z AUTO 02006KT 25/22 A2991 RMK AO2 LTG DSNT NE AND E T02460221 PWINO
 
KPNC - Ponca City, Oklahoma, USA
Distance from station: N 22mi, 36km
Updated: Wed, 08-17-2022 12:53am CDT
NOT Current
Partly cloudy
Partly cloudy
 Wind from NNE
Wind: NNE 12 mph , 19 km/h
Temperature: 73°F , 23°C
Dew Point: 66°F , 19°C
Humidity: 78%
Barometer: 1015.6 hPa
Clouds: Partly cloudy
Visibility: 10 miles , 16 km
Cloud details: Partly cloudy 1400 ft
2022/08/17 05:53 KPNC 170553Z AUTO 02010KT 10SM SCT014 23/19 A2999 RMK AO2 SLP142 T02280194 10322 20228 403890228 51013
KSNL - Shawnee, Oklahoma, USA
Distance from station: S 74mi, 119km
Updated: Wed, 08-17-2022 1:55am CDT
Partly cloudy
Partly cloudy
 Wind from N
Wind: N 10 mph , 17 km/h
Temperature: 75°F , 24°C
Dew Point: 68°F , 20°C
Humidity: 78%
Barometer: 1014.6 hPa
Clouds: Partly cloudy
Visibility: 10 miles , 16 km
Cloud details: Partly cloudy 11000 ft
2022/08/17 06:55 KSNL 170655Z AUTO 36009KT 10SM SCT110 24/20 A2996 RMK AO2 T02400195
KSWO - Stillwater, Oklahoma, USA
Distance from station: S 17mi, 28km
Updated: Wed, 08-17-2022 1:37am CDT
Mostly cloudy
Mostly cloudy
 Wind from N
Wind: N 10 mph , 17 km/h
Temperature: 75°F , 24°C
Dew Point: 70°F , 21°C
Humidity: 83%
Barometer: 1015.6 hPa
Clouds: Mostly cloudy
Visibility: 10 miles , 16 km
Cloud details: Mostly cloudy 1800 ft
2022/08/17 06:37 KSWO 170637Z AUTO 36009KT 10SM BKN018 24/21 A2999 RMK AO2 T02440206
 
KTIK - Tinker Afb, Oklahoma, USA
Distance from station: SSW 72mi, 115km
Updated: Wed, 08-17-2022 1:55am CDT
Partly cloudy
Partly cloudy
 Wind from NNE
Wind: NNE 17 mph , 28 km/h
Temperature: 77°F , 25°C
Dew Point: 68°F , 20°C
Humidity: 74%
Barometer: 1013.9 hPa
Clouds: Partly cloudy
Visibility: 10 miles , 16 km
Cloud details: Partly cloudy 11000 ft
2022/08/17 06:55 KTIK 170655Z AUTO 02015KT 10SM SCT110 25/20 A2994 RMK AO2 SLPNO T02500198
KTUL - Tulsa, Oklahoma, USA
Distance from station: ESE 65mi, 105km
Updated: Wed, 08-17-2022 12:53am CDT
NOT Current
Light thunderstorm, Rain, Overcast
Light thunderstorm, Rain, Overcast
 Wind from N
Wind: N 12 mph , 19 km/h
Temperature: 75°F , 24°C
Dew Point: 72°F , 22°C
Humidity: 89%
Barometer: 1013.5 hPa
Summary: Light thunderstorm, Rain
Clouds: Overcast
Visibility: 8 miles , 13 km
Cloud details: Mostly cloudy 1900 ft
Mostly cloudy 3000 ft
Overcast 9000 ft
2022/08/17 05:53 KTUL 170553Z 01010KT 8SM -TSRA BKN019 BKN030CB OVC090 24/22 A2993 RMK AO2 LTG DSNT E AND SW AND W RAB37 TSB05 SLP123 OCNL LTGICCG ALQDS TS ALQDS MOV SE P0007 60007 T02390217 10389 20239 404060239 51012